Google Maps JavaScript API Example
Pilot Flight Report # 91769 Submitted by : AST232 on 2018-08-04
Date: 2018-08-04Aircraft: Boeing 777-300ER
Flight No.: ONLINE EVENTDistance (Nm): 963.40
Departure: GMTT - Ibn BatoutaDestination: HLLT - Tripoli International
 TimeFuelWeightSpeeds  
Out (Taxi)1135 Flight RulesIFR
Off (Takeoff)1135 Flight Level
On (Landing)1415 VSTD
In (Ramp)1415 ZFW
Flight2.67  -  2:4027588  Pax0
Block2.67  -  2:4027588  Cargo0
Departure WeatherSA 041730 06011KT CAVOK 29/16 Q1013 NOSIG FT 041700 0418/0524 07014KT 9999 FEW016
Destination WeatherSA 130420 11007KT CAVOK 24/15 Q1015 FT 311100 311212 HLGD 311100Z 3112/0112 36010KT CAVOK
Flight CommentsIn Search of the Sandman - 4 of 20
.